createdAt,value
2019-04-05T00:00:11.875Z,339.00
2019-04-05T00:04:18.284Z,343.57
2019-04-05T00:08:24.640Z,331.87
2019-04-05T00:12:31.770Z,335.27
2019-04-05T00:16:38.838Z,342.60
2019-04-05T00:20:46.077Z,352.93
2019-04-05T00:24:53.238Z,348.93
2019-04-05T00:29:00.304Z,334.80
2019-04-05T00:33:07.546Z,342.43
2019-04-05T00:37:14.647Z,335.03
2019-04-05T00:41:21.884Z,334.90
2019-04-05T00:45:29.116Z,333.37
2019-04-05T00:49:36.332Z,324.77
2019-04-05T00:53:43.523Z,346.77
2019-04-05T00:57:50.581Z,314.53
2019-04-05T01:01:57.647Z,340.03
2019-04-05T01:06:04.848Z,324.20
2019-04-05T01:10:12.426Z,342.60
2019-04-05T01:14:19.667Z,338.47
2019-04-05T01:18:26.760Z,336.47
2019-04-05T01:22:34.533Z,338.73
2019-04-05T01:26:43.851Z,334.27
2019-04-05T01:30:51.048Z,335.83
2019-04-05T01:34:58.167Z,334.07
2019-04-05T01:39:05.902Z,336.23
2019-04-05T01:43:14.484Z,331.47
2019-04-05T01:47:21.637Z,336.50
2019-04-05T01:51:28.773Z,353.50
2019-04-05T01:55:36.040Z,302.03
2019-04-05T01:59:43.288Z,330.63
2019-04-05T02:03:50.669Z,345.57
2019-04-05T02:07:58.071Z,329.33
2019-04-05T02:12:05.269Z,340.87
2019-04-05T02:16:12.338Z,347.50
2019-04-05T02:20:19.991Z,339.53
2019-04-05T02:24:27.087Z,341.87
2019-04-05T02:28:34.544Z,338.57
2019-04-05T02:32:41.695Z,343.87
2019-04-05T02:36:48.749Z,338.73
2019-04-05T02:40:58.740Z,344.00
2019-04-05T02:45:08.017Z,340.67
2019-04-05T02:49:15.509Z,345.77
2019-04-05T02:53:22.993Z,348.07
2019-04-05T02:57:30.316Z,349.17
2019-04-05T03:01:37.362Z,338.13
2019-04-05T03:05:45.191Z,348.03
2019-04-05T03:09:52.945Z,360.10
2019-04-05T03:14:01.054Z,344.17
2019-04-05T03:18:08.853Z,347.50
2019-04-05T03:22:17.906Z,353.73
2019-04-05T03:26:29.048Z,359.33
2019-04-05T03:30:40.196Z,362.73
2019-04-05T03:34:47.390Z,372.57
2019-04-05T03:38:54.932Z,374.77
2019-04-05T03:43:03.073Z,366.17
2019-04-05T03:47:10.348Z,375.87
2019-04-05T03:51:17.485Z,378.27
2019-04-05T03:55:24.609Z,377.63
2019-04-05T03:59:32.021Z,380.90
2019-04-05T04:03:39.156Z,382.83
2019-04-05T04:07:47.061Z,391.90
2019-04-05T04:11:54.230Z,385.07
2019-04-05T04:16:01.607Z,400.63
2019-04-05T04:20:27.568Z,392.00
2019-04-05T04:24:35.551Z,394.13
2019-04-05T04:28:42.780Z,410.70
2019-04-05T04:32:49.848Z,414.57
2019-04-05T04:36:57.056Z,428.07
2019-04-05T04:41:04.529Z,414.90
2019-04-05T04:45:12.980Z,411.93
2019-04-05T04:49:20.429Z,434.43
2019-04-05T04:53:28.069Z,395.17
2019-04-05T04:57:35.288Z,431.90
2019-04-05T05:01:43.694Z,438.77
2019-04-05T05:05:50.977Z,408.33
2019-04-05T05:09:58.138Z,415.87
2019-04-05T05:14:05.627Z,416.97
2019-04-05T05:18:13.402Z,420.50
2019-04-05T05:22:20.969Z,432.83
2019-04-05T05:26:28.548Z,435.50
2019-04-05T05:30:36.198Z,416.53
2019-04-05T05:34:45.105Z,405.97
2019-04-05T05:38:52.535Z,423.97
2019-04-05T05:42:59.601Z,428.03
2019-04-05T05:47:08.680Z,430.93
2019-04-05T05:51:16.042Z,419.47
2019-04-05T05:55:23.159Z,429.43
2019-04-05T05:59:30.788Z,417.93
2019-04-05T06:03:38.892Z,413.17
2019-04-05T06:07:46.005Z,424.40
2019-04-05T06:11:53.224Z,403.00
2019-04-05T06:16:00.315Z,406.07
2019-04-05T06:20:08.033Z,387.27
2019-04-05T06:24:15.109Z,401.03
2019-04-05T06:28:22.312Z,397.50
2019-04-05T06:32:29.374Z,400.83
2019-04-05T06:36:36.485Z,399.37
2019-04-05T06:40:43.708Z,413.60
2019-04-05T06:44:51.103Z,403.80
2019-04-05T06:48:58.823Z,395.10
2019-04-05T06:53:06.028Z,375.97
2019-04-05T06:57:13.239Z,360.87
2019-04-05T07:01:20.336Z,326.37
2019-04-05T07:05:27.384Z,365.30
2019-04-05T07:09:34.547Z,372.07
2019-04-05T07:13:41.772Z,353.70
2019-04-05T07:17:48.975Z,339.97
2019-04-05T07:21:56.100Z,345.03
2019-04-05T07:26:03.256Z,351.67
2019-04-05T07:30:11.002Z,336.80
2019-04-05T07:34:18.112Z,376.57
2019-04-05T07:38:25.352Z,364.80
2019-04-05T07:42:32.514Z,365.03
2019-04-05T07:46:40.029Z,372.00
2019-04-05T07:50:47.236Z,375.67
2019-04-05T07:54:54.305Z,364.07
2019-04-05T07:59:01.533Z,368.13
2019-04-05T08:03:08.909Z,364.60
2019-04-05T08:07:18.294Z,369.17
2019-04-05T08:11:25.490Z,358.90
2019-04-05T08:15:32.815Z,362.27
2019-04-05T08:19:40.095Z,366.20
2019-04-05T08:23:47.468Z,370.67
2019-04-05T08:27:54.983Z,365.83
2019-04-05T08:32:13.960Z,366.97
2019-04-05T08:36:11.138Z,347.10
2019-04-05T08:40:18.369Z,347.70
2019-04-05T08:44:25.900Z,343.47
2019-04-05T08:48:32.974Z,340.53
2019-04-05T08:52:40.105Z,329.83
2019-04-05T08:56:47.792Z,341.30
2019-04-05T09:00:55.504Z,339.07
2019-04-05T09:05:05.230Z,343.67
2019-04-05T09:09:12.294Z,339.20
2019-04-05T09:13:19.503Z,333.07
2019-04-05T09:17:26.733Z,334.83
2019-04-05T09:21:33.807Z,332.30
2019-04-05T09:25:41.466Z,326.17
2019-04-05T09:29:48.758Z,324.47
2019-04-05T09:33:56.332Z,327.83
2019-04-05T09:38:03.436Z,320.83
2019-04-05T09:42:10.764Z,321.63
2019-04-05T09:46:18.073Z,324.63
2019-04-05T09:50:29.648Z,328.43
2019-04-05T09:54:36.842Z,325.63
2019-04-05T09:58:44.570Z,331.63
2019-04-05T10:02:51.871Z,323.03
2019-04-05T10:07:00.579Z,327.23
2019-04-05T10:11:07.751Z,324.10
2019-04-05T10:15:15.060Z,340.33
2019-04-05T10:19:22.192Z,321.03
2019-04-05T10:23:29.231Z,322.57
2019-04-05T10:27:36.339Z,334.47
2019-04-05T10:31:43.837Z,346.20
2019-04-05T10:35:51.105Z,332.60
2019-04-05T10:39:58.187Z,326.37
2019-04-05T10:44:07.565Z,331.07
2019-04-05T10:48:15.169Z,341.90
2019-04-05T10:52:22.980Z,342.90
2019-04-05T10:56:30.392Z,337.53
2019-04-05T11:00:37.936Z,341.07
2019-04-05T11:04:45.434Z,334.27
2019-04-05T11:08:52.496Z,332.67
2019-04-05T11:12:59.564Z,331.83
2019-04-05T11:17:06.752Z,333.53
2019-04-05T11:21:13.848Z,331.53
2019-04-05T11:25:21.228Z,336.83
2019-04-05T11:29:28.339Z,342.27
2019-04-05T11:33:35.631Z,338.73
2019-04-05T11:37:43.425Z,323.07
2019-04-05T11:41:51.822Z,327.50
2019-04-05T11:45:59.126Z,325.67
2019-04-05T11:50:12.106Z,322.13
2019-04-05T11:54:19.514Z,337.10
2019-04-05T11:58:26.658Z,321.60
2019-04-05T12:02:38.735Z,329.07
2019-04-05T12:06:45.836Z,319.33
2019-04-05T12:10:52.922Z,319.07
2019-04-05T12:15:00.080Z,338.83
2019-04-05T12:19:07.240Z,323.13
2019-04-05T12:23:14.424Z,334.63
2019-04-05T12:27:21.636Z,334.97
2019-04-05T12:31:28.859Z,342.40
2019-04-05T12:35:37.599Z,332.73
2019-04-05T12:39:44.977Z,335.00
2019-04-05T12:43:52.268Z,332.27
2019-04-05T12:47:59.377Z,330.73
2019-04-05T12:52:06.759Z,334.87
2019-04-05T12:56:13.991Z,337.27
2019-04-05T13:00:23.620Z,351.17
2019-04-05T13:04:30.948Z,336.27
2019-04-05T13:08:38.095Z,334.60
2019-04-05T13:12:45.213Z,332.83
2019-04-05T13:16:52.469Z,330.27
2019-04-05T13:21:00.353Z,332.57
2019-04-05T13:25:10.812Z,329.57
2019-04-05T13:29:17.651Z,331.77
2019-04-05T13:33:28.861Z,335.37
2019-04-05T13:37:35.253Z,332.50
2019-04-05T13:41:42.437Z,329.00
2019-04-05T13:45:49.601Z,330.00
2019-04-05T13:49:56.726Z,327.17
2019-04-05T13:54:04.245Z,328.90
2019-04-05T13:58:12.038Z,325.40
2019-04-05T14:02:21.189Z,337.50
2019-04-05T14:06:28.367Z,324.23
2019-04-05T14:10:35.596Z,334.30
2019-04-05T14:14:42.921Z,330.10
2019-04-05T14:18:50.030Z,319.23
2019-04-05T14:22:57.158Z,334.70
2019-04-05T14:27:04.390Z,324.80
2019-04-05T14:31:11.481Z,331.07
2019-04-05T14:35:18.596Z,321.83
2019-04-05T14:39:25.853Z,324.43
2019-04-05T14:43:32.924Z,319.43
2019-04-05T14:47:41.532Z,321.47
2019-04-05T14:51:54.981Z,327.47
2019-04-05T14:55:59.260Z,325.93
2019-04-05T15:00:08.695Z,332.77
2019-04-05T15:04:15.768Z,327.93
2019-04-05T15:08:22.941Z,320.37
2019-04-05T15:12:30.035Z,316.03
2019-04-05T15:16:37.147Z,323.13
2019-04-05T15:20:44.245Z,326.80
2019-04-05T15:24:51.358Z,319.43
2019-04-05T15:28:58.704Z,323.77
2019-04-05T15:33:05.790Z,324.70
2019-04-05T15:37:15.758Z,318.63
2019-04-05T15:41:21.990Z,323.93
2019-04-05T15:45:29.300Z,319.27
2019-04-05T15:49:36.519Z,328.17
2019-04-05T15:53:43.745Z,317.97
2019-04-05T15:57:50.850Z,321.23
2019-04-05T16:01:58.005Z,326.57
2019-04-05T16:06:05.229Z,319.53
2019-04-05T16:10:13.024Z,311.37
2019-04-05T16:14:20.559Z,315.97
2019-04-05T16:18:27.625Z,321.93
2019-04-05T16:22:36.028Z,322.20
2019-04-05T16:26:43.267Z,328.93
2019-04-05T16:30:50.357Z,326.93
2019-04-05T16:34:57.431Z,325.50
2019-04-05T16:39:07.969Z,323.37
2019-04-05T16:43:15.449Z,315.23
2019-04-05T16:47:22.630Z,318.90
2019-04-05T16:51:29.758Z,323.37
2019-04-05T16:55:36.885Z,323.00
2019-04-05T16:59:43.991Z,328.23
2019-04-05T17:03:51.382Z,316.97
2019-04-05T17:07:58.578Z,315.23
2019-04-05T17:12:05.752Z,328.00
2019-04-05T17:16:13.516Z,325.20
2019-04-05T17:20:20.973Z,341.33
2019-04-05T17:24:28.368Z,318.97
2019-04-05T17:28:35.487Z,331.00
2019-04-05T17:32:42.653Z,336.73
2019-04-05T17:36:49.796Z,318.47
2019-04-05T17:40:57.002Z,318.83
2019-04-05T17:45:05.912Z,324.50
2019-04-05T17:49:13.001Z,327.23
2019-04-05T17:53:20.071Z,321.57
2019-04-05T17:57:27.898Z,329.80
2019-04-05T18:01:35.038Z,325.50
2019-04-05T18:05:42.172Z,317.27
2019-04-05T18:09:49.243Z,319.40
2019-04-05T18:13:56.397Z,320.53
2019-04-05T18:18:03.501Z,324.87
2019-04-05T18:22:10.636Z,322.23
2019-04-05T18:26:17.711Z,333.70
2019-04-05T18:30:24.840Z,332.10
2019-04-05T18:34:31.914Z,322.33
2019-04-05T18:38:39.007Z,324.53
2019-04-05T18:42:46.144Z,325.67
2019-04-05T18:46:53.220Z,321.83
2019-04-05T18:51:00.362Z,337.83
2019-04-05T18:55:07.905Z,335.90
2019-04-05T18:59:15.065Z,337.70
2019-04-05T19:03:22.195Z,330.37
2019-04-05T19:07:29.351Z,326.50
2019-04-05T19:11:36.479Z,334.03
2019-04-05T19:15:44.399Z,327.87
2019-04-05T19:19:51.466Z,321.77
2019-04-05T19:23:58.568Z,333.50
2019-04-05T19:28:05.757Z,327.80
2019-04-05T19:48:48.595Z,329.83
2019-04-05T19:52:55.724Z,328.97
2019-04-05T19:57:03.070Z,329.10
2019-04-05T20:01:10.153Z,330.67
2019-04-05T20:05:17.317Z,346.87
2019-04-05T20:09:24.403Z,342.20
2019-04-05T20:13:31.482Z,328.13
2019-04-05T20:17:38.824Z,322.87
2019-04-05T20:21:46.082Z,334.43
2019-04-05T20:25:53.180Z,343.80
2019-04-05T20:30:00.264Z,343.80
2019-04-05T20:34:07.523Z,335.37
2019-04-05T20:38:15.504Z,332.33
2019-04-05T20:42:23.122Z,339.80
2019-04-05T20:46:30.219Z,334.33
2019-04-05T20:50:37.566Z,336.30
2019-04-05T20:54:44.636Z,340.40
2019-04-05T20:58:51.742Z,349.17
2019-04-05T21:02:58.859Z,356.37
2019-04-05T21:07:05.954Z,344.33
2019-04-05T21:11:13.056Z,348.60
2019-04-05T21:15:20.306Z,346.00
2019-04-05T21:19:27.725Z,340.87
2019-04-05T21:23:34.837Z,340.33
2019-04-05T21:27:41.954Z,342.53
2019-04-05T21:31:49.123Z,339.63
2019-04-05T21:35:56.548Z,331.37
2019-04-05T21:40:05.152Z,351.37
2019-04-05T21:44:12.495Z,349.90
2019-04-05T21:48:19.714Z,349.47
2019-04-05T21:52:27.046Z,348.23
2019-04-05T21:56:34.154Z,350.57
2019-04-05T22:00:46.051Z,338.67
2019-04-05T22:04:53.126Z,348.50
2019-04-05T22:09:00.827Z,345.60
2019-04-05T22:13:08.119Z,341.60
2019-04-05T22:17:15.224Z,332.07
2019-04-05T22:21:22.314Z,344.63
2019-04-05T22:25:29.468Z,352.73
2019-04-05T22:29:36.577Z,338.03
2019-04-05T22:33:43.688Z,339.73
2019-04-05T22:37:50.702Z,339.20
2019-04-05T22:41:57.794Z,331.57
2019-04-05T22:46:04.902Z,333.60
2019-04-05T22:50:12.329Z,336.67
2019-04-05T22:54:19.395Z,337.20
2019-04-05T22:58:26.477Z,337.57
2019-04-05T23:02:33.579Z,337.27
2019-04-05T23:06:40.689Z,354.27
2019-04-05T23:10:47.864Z,345.53
2019-04-05T23:14:55.025Z,343.40
2019-04-05T23:19:02.250Z,346.53
2019-04-05T23:23:09.599Z,347.20
2019-04-05T23:27:16.647Z,340.17
2019-04-05T23:31:23.882Z,347.20
2019-04-05T23:35:30.957Z,345.83
2019-04-05T23:39:38.113Z,345.83
2019-04-05T23:43:45.561Z,341.03
2019-04-05T23:47:52.712Z,345.63
2019-04-05T23:51:59.800Z,340.43
2019-04-05T23:56:06.925Z,345.03
